KDABKTVI

Guest
Details From KDAB - Daytona Beach Intl
To KTVI - Thomasville Rgnl
Flight Number -
Tags Generated
Created
Modified
Stats Distance 180 nm / 334 km
Max Altitude 0 ft / 0 m
Waypoints 2
Social Downloads 1
Likes 0
Share VATSIM

Download

Looking for another format? Having issues loading an existing format? Contact us
Advertisement - Login to hide

Notes

Generated

Route

KDAB KTVI

ID Type Via Altitude Latitude Longitude Leg Dist Tot Dist Heading (true) Name
O KDAB APT - 0 ft / 0 m 29.17603˚ -81.05684˚ - 0 nm - Daytona Beach Intl
O KTVI APT - 0 ft / 0 m 30.90734˚ -83.88606˚ 180 nm 180 nm 306° / 305° -

Altitude Profile

Advertisement - Login to hide

Weather


0- 5 10 15 20 25 30 35+ Temperature / ° C

Clouds and Precipitation
Forecast for 2017-12-12 18:00 UTC. Updated 29 minutes ago

Ground ~20,000 ft ~40,000 ft Winds

KDAB

Details ICAO KDAB (DAB)
Name Daytona Beach Intl
Region United States
Timezone America/New_York (UTC-5.0)
Stats Elevation 34 ft / 10 m (AMSL)
Location 29.179918° -81.055946°
Runways 3
Magnetic Variation 6.672° W

METAR

KDAB 121653Z 24017KT 10SM SCT034 SCT250 20/12 A2995 RMK AO2 SLP140 T02000122

Decode

TAF

TAF KDAB 121121Z 1212/1312 20006KT P6SM FEW250 FM121500 23008KT P6SM SCT250 FM121700 24014G21KT P6SM SCT050 BKN250 FM130000 27010KT P6SM SKC FM130400 31007KT P6SM SKC

Decode

Departure Runways

ID Width Length Bearing (true) Bearing (mag) Surface Threshold Offset Overrun Length
07L 151 ft / 46 m 10,492 ft / 3,198 m 65.10° 71.77° Asphalt 689 ft / 210 m 0 ft / 0 m
07R 98 ft / 30 m 3,193 ft / 973 m 65.04° 71.71° Asphalt 0 ft / 0 m 0 ft / 0 m
16 151 ft / 46 m 6,018 ft / 1,834 m 157.27° 163.94° Asphalt 0 ft / 0 m 200 ft / 61 m
25L 98 ft / 30 m 3,193 ft / 973 m 245.04° 251.71° Asphalt 0 ft / 0 m 0 ft / 0 m
25R 151 ft / 46 m 10,492 ft / 3,198 m 245.12° 251.79° Asphalt 0 ft / 0 m 0 ft / 0 m
34 151 ft / 46 m 6,018 ft / 1,834 m 337.27° 343.94° Asphalt 0 ft / 0 m 200 ft / 61 m

KTVI

Details ICAO KTVI (TVI)
Name THOMASVILLE RGNL
Region United States
Timezone America/New_York (UTC-5.0)
Stats Elevation 264 ft / 80 m (AMSL)
Location 30.901821° -83.881083°
Runways 2
Magnetic Variation 5.087° W

METAR

KTVI 121735Z AUTO 32011G18KT 10SM CLR 16/04 A2994 RMK AO2

Decode

TAF

Not found

Destination Runways

ID Width Length Bearing (true) Bearing (mag) Surface Threshold Offset Overrun Length
04 100 ft / 30 m 5,507 ft / 1,678 m 39.86° 44.95° Asphalt 0 ft / 0 m 0 ft / 0 m
14 100 ft / 30 m 5,001 ft / 1,524 m 133.30° 138.39° Asphalt 0 ft / 0 m 0 ft / 0 m
22 100 ft / 30 m 5,507 ft / 1,678 m 219.87° 224.96° Asphalt 0 ft / 0 m 0 ft / 0 m
32 100 ft / 30 m 5,001 ft / 1,524 m 313.30° 318.39° Asphalt 0 ft / 0 m 0 ft / 0 m